Airfield :
LOGIN :

Register | Disclaimer

   EN    FR    IT 

 










Legend :    VFR   Marginal VFR   IFR   Intensive IFR   Very Intensive IFR
Visi :
Ceiling :
>= 8 km
>= 3000ft
5 to 8 km
1000 to 3000 ft
1500m to 5 km
500 to 1000 ft
800 to 1500m
200 to 500 ft
< 800m
< 200 ft
Symbols :   Thunderstorms  Fog  Heavy snow  Heavy precipitations  Wind > 20 kt
SIGMETs :     Misc.  Thunderstorms  Icing  Turbulence  Mountain Waves  Volcanic Ashes







- Airport Elevation : 53 ft
- IATA code : AGP


LEMG - Malaga

CURRENT METAR :
  • 130530Z 28004KT 9999 FEW020 12/09 Q1017 NOSIG

EXPIRED METARs :
  • 130500Z 30004KT 9999 FEW020 12/10 Q1017 NOSIG
  • 130430Z 25004KT 9999 FEW020 15/09 Q1017 NOSIG
  • 130400Z 23005KT 200V280 9999 FEW020 14/09 Q1017 NOSIG
  • 130330Z 29004KT 9999 FEW020 13/09 Q1017 NOSIG
  • 130300Z 24004KT 210V270 9999 FEW020 15/08 Q1018 NOSIG

TAF TAF LEMG
Valid from the 13 at 06:00 until the 14 at 06:00 UTC


130500Z 1306/1406 29012KT 9999 SCT050 TX17/1311Z TN11/1318Z
TEMPO 1306/1312 4000 RA BKN014
BECMG 1310/1312 32015G25KT
PROB40
TEMPO 1310/1316 32020G30KT
No reported NOTAMs for that airfield.
2 SIGMETs reported for the Madrid FIR (LECM) :
 
Severe turbulence
LECM SIGMET 2 VALID 130600/131000 LEVA
LECM MADRID FIR/UIR SEV TURB FCST W OF LINE N3757 W00501 - N3554 W00417 FL240/340 MOV E NC=
Severe turbulence
LECM SIGMET 1 VALID 130400/130800 LEVA
LECM MADRID FIR SEV TURB FCST W OF LINE N4435 W006 - N3551 W00506 SFC/FL220 MOV E NC=



MET'MAP, your aeronautical weather chart ! - Copyright ORBIFLY December 2007 - Disclaimer

ORBIFLY MET'MAP TEAM :

Programming & Development : Alexandra Zaïnal
Concept & Development : Baudouin d'Aumeries
Co-Development & Prog : Marc-Olivier Méhu
Technical & hardware support : Manuel Goepfert

Contact : metmap@orbifly.com




SOURCES & CREDITS :

   NOAA